Ana Sayfa
METAR-TAF:

METAR-TAF

Havaalanları :

Harrisburg / Middletown, Pensilvanya, Amerika Birleşik Devletleri

Enlem: 40-11-37N, Boylam: 076-45-48W, yükseklik: 95 m

Güncel hava durumu gözlemi

Rapor saat 06:56 UTC de 56 dakika önce yapıldı.
Sakin rüzgar
Sıcaklık -3°C
Nem 68%
Basınç 1024 hPa
Görüş mesafesi: 16.1 km
Açık gökyüzü

METAR: KMDT 230656Z 00000KT 10SM CLR M03/M08 A3024 RMK AO2 SLP243 T10331083 $

Saat: 02:52 (07:52 UTC)

Tahmin

Rapor saat 05:37 UTC de 2 saat ve 15 dakika önce yapıldı.
Ayın 23'si saat 06 UTC'den ayın 24'si saat 06 UTC'ye kadar geçerli Tahmin
Rüzgar kuzeydan kt
Görüş mesafesi: 10 km
Açık gökyüzü
Ayın 23'si saat 1200 UTC'den
Rüzgar batıdan 3 kt
Görüş mesafesi: 10 km
Açık gökyüzü
Ayın 23'si saat 1800 UTC'den
Rüzgar güneybatıdan 6 kt
Görüş mesafesi: 10 km
Açık gökyüzü

TAF: KMDT 230537Z 2306/2406 00000KT P6SM SKC FM231200 28003KT P6SM SKC FM231800 23006KT P6SM SKC

4.000'den fazla havaalanı için hava durumu gözlemleri ve tahminleri (METAR ve TAF raporları).

Kullanılabilir istasyonlar harita üzerinde sarı ve kırmızı noktalarla gösterilir.

İstasyonun adını görmek için fareyi noktanın üzerinde gezdirin.

Sonrasında hava gözlem ve tahminlerini görmek için tıklayın.

Haritayı değiştirmek için: yaklaştırmak için siyah artı işaretli yeşil düğmeye ve uzaklaştırmak için de eksi işaretli düğmeye hızla tıklayın; bitişik haritalar için yeşil okları kullanın.


METAR-TAF: